Time;durP1;ratioP1;P1;durP2;ratioP2;P2;SDS_P1;SDS_P2;PMS_P1;PMS_P2;Temp;Humidity;BMP_temperature;BMP_pressure;BME280_temperature;BME280_humidity;BME280_pressure;Samples;Min_cycle;Max_cycle;Signal;HPM_P1;HPM_P2
2021/10/18 00:01:55;;;;;;;215.32;195.35;;;;;;;6.77;100.00;101833.09;5009236;28;20129;-78
2021/10/18 00:04:21;;;;;;;205.68;188.00;;;;;;;6.71;100.00;101839.00;5004633;28;20042;-78
2021/10/18 00:06:48;;;;;;;201.07;183.73;;;;;;;6.67;100.00;101842.13;5003059;28;20116;-79
2021/10/18 00:09:15;;;;;;;207.45;189.10;;;;;;;6.77;100.00;101834.94;5008634;28;20459;-77
2021/10/18 00:11:41;;;;;;;183.57;166.73;;;;;;;6.40;100.00;101836.78;5002173;28;20120;-78
2021/10/18 00:14:08;;;;;;;186.98;169.95;;;;;;;6.11;100.00;101839.63;5005156;28;20049;-77
2021/10/18 00:16:36;;;;;;;191.95;174.85;;;;;;;6.43;100.00;101841.75;5006616;28;20049;-76
2021/10/18 00:19:04;;;;;;;199.25;181.45;;;;;;;6.17;100.00;101840.81;5011391;28;20042;-78
2021/10/18 00:21:31;;;;;;;197.90;180.25;;;;;;;6.16;100.00;101845.28;5011657;28;20045;-77
2021/10/18 00:23:58;;;;;;;185.13;168.23;;;;;;;5.95;100.00;101842.91;5006335;28;20042;-78
2021/10/18 00:26:25;;;;;;;195.90;178.82;;;;;;;5.98;100.00;101839.16;4998910;28;20046;-78
2021/10/18 00:28:52;;;;;;;195.68;178.30;;;;;;;5.81;100.00;101840.75;5009493;28;20430;-77
2021/10/18 00:31:20;;;;;;;197.90;180.00;;;;;;;6.12;100.00;101840.47;5010105;28;20104;-77
2021/10/18 00:33:46;;;;;;;208.55;189.50;;;;;;;6.35;100.00;101831.09;5009810;28;20120;-78
2021/10/18 00:36:15;;;;;;;193.27;176.20;;;;;;;6.50;100.00;101843.78;5000623;28;20053;-77
2021/10/18 00:38:42;;;;;;;191.77;174.32;;;;;;;6.54;100.00;101843.34;5002184;28;20050;-77
2021/10/18 00:41:09;;;;;;;202.50;184.77;;;;;;;6.57;100.00;101835.13;5003744;28;20054;-77
2021/10/18 00:43:36;;;;;;;195.10;176.70;;;;;;;6.60;100.00;101839.25;5005393;28;20050;-78
2021/10/18 00:46:02;;;;;;;215.30;194.60;;;;;;;6.55;100.00;101825.69;5002529;28;20061;-79
2021/10/18 00:48:29;;;;;;;220.13;199.68;;;;;;;6.43;100.00;101828.56;5004131;28;20534;-78
2021/10/18 00:50:57;;;;;;;194.73;175.90;;;;;;;6.29;100.00;101834.34;5009452;28;20054;-77
2021/10/18 00:53:26;;;;;;;203.63;183.18;;;;;;;6.27;100.00;101827.59;5000628;28;20061;-77
2021/10/18 00:55:53;;;;;;;212.48;193.38;;;;;;;6.08;100.00;101825.91;5003022;28;20096;-77
2021/10/18 00:58:21;;;;;;;215.77;195.70;;;;;;;6.21;100.00;101834.28;5002068;28;20077;-77
2021/10/18 01:00:49;;;;;;;212.82;191.90;;;;;;;5.80;100.00;101825.06;5002634;28;20046;-78
2021/10/18 01:03:16;;;;;;;213.00;193.85;;;;;;;6.02;100.00;101829.13;5005546;28;20450;-80
2021/10/18 01:05:44;;;;;;;212.60;193.45;;;;;;;6.15;100.00;101834.88;4999030;28;20513;-78
2021/10/18 01:08:11;;;;;;;200.57;182.13;;;;;;;6.27;100.00;101828.41;5004985;28;20103;-78
2021/10/18 01:10:39;;;;;;;204.68;186.23;;;;;;;6.13;100.00;101823.66;5004202;28;20053;-76
2021/10/18 01:13:05;;;;;;;190.30;171.65;;;;;;;6.10;100.00;101830.03;5003584;28;20058;-77
2021/10/18 01:15:32;;;;;;;200.68;181.95;;;;;;;5.93;100.00;101834.34;5003555;28;20471;-76
2021/10/18 01:17:59;;;;;;;220.95;201.43;;;;;;;6.18;100.00;101827.50;5011003;28;20108;-78
2021/10/18 01:20:31;;;;;;;220.07;200.57;;;;;;;5.96;100.00;101823.50;5000930;28;20046;-78
2021/10/18 01:22:58;;;;;;;218.85;198.10;;;;;;;6.08;100.00;101832.03;5003920;28;20117;-78
2021/10/18 01:25:25;;;;;;;196.48;177.43;;;;;;;6.08;100.00;101831.16;4999518;28;20530;-77
2021/10/18 01:27:52;;;;;;;219.55;198.73;;;;;;;6.08;100.00;101829.38;5001719;28;20071;-78
2021/10/18 01:30:19;;;;;;;223.18;202.05;;;;;;;5.93;100.00;101823.78;5007919;28;20109;-78
2021/10/18 01:32:46;;;;;;;231.05;208.95;;;;;;;5.71;100.00;101827.59;5003549;28;20495;-78
2021/10/18 01:35:13;;;;;;;236.60;215.10;;;;;;;5.88;100.00;101827.81;5002020;28;20045;-77
2021/10/18 01:37:41;;;;;;;247.50;223.93;;;;;;;5.91;100.00;101827.50;5009844;28;20045;-77
2021/10/18 01:40:09;;;;;;;266.60;241.57;;;;;;;6.13;100.00;101829.75;5009128;28;20057;-77
2021/10/18 01:42:36;;;;;;;254.45;229.65;;;;;;;5.93;100.00;101821.16;5001703;28;20104;-78
2021/10/18 01:45:03;;;;;;;259.77;234.15;;;;;;;5.92;100.00;101831.81;5001288;28;20057;-77
2021/10/18 01:47:30;;;;;;;275.55;246.98;;;;;;;5.93;100.00;101829.06;5000732;28;20045;-78
2021/10/18 01:49:57;;;;;;;280.73;254.50;;;;;;;5.94;100.00;101822.81;5007282;28;20058;-78
2021/10/18 01:52:24;;;;;;;282.77;255.02;;;;;;;6.01;100.00;101828.31;5002289;28;20490;-77
2021/10/18 01:54:52;;;;;;;256.27;232.30;;;;;;;6.03;100.00;101831.63;4999530;28;20050;-77
2021/10/18 01:57:19;;;;;;;259.58;234.38;;;;;;;5.92;100.00;101827.34;4999493;28;20462;-76
2021/10/18 01:59:46;;;;;;;274.00;247.75;;;;;;;5.99;100.00;101834.69;4997390;28;20402;-77
2021/10/18 02:02:13;;;;;;;278.33;251.52;;;;;;;6.02;100.00;101832.63;5124656;22;20494;-76
2021/10/18 02:04:39;;;;;;;273.00;246.50;;;;;;;6.06;100.00;101833.97;5013398;28;20046;-77
2021/10/18 02:07:06;;;;;;;282.20;254.98;;;;;;;6.11;100.00;101826.44;5012390;28;20053;-78
2021/10/18 02:09:33;;;;;;;295.02;264.30;;;;;;;6.25;100.00;101825.09;5017889;28;20045;-78
2021/10/18 02:12:01;;;;;;;289.35;259.88;;;;;;;6.26;100.00;101826.72;5008253;28;20493;-77
2021/10/18 02:14:28;;;;;;;258.52;232.38;;;;;;;6.28;100.00;101823.97;5004133;28;20045;-78
2021/10/18 02:16:55;;;;;;;264.85;238.35;;;;;;;6.21;100.00;101829.00;5010455;28;20510;-77
2021/10/18 02:19:22;;;;;;;271.55;245.38;;;;;;;6.33;100.00;101822.53;5008527;28;20045;-77
2021/10/18 02:21:48;;;;;;;253.32;229.30;;;;;;;6.39;100.00;101826.38;5006879;28;20053;-77
2021/10/18 02:24:15;;;;;;;261.30;234.93;;;;;;;6.33;100.00;101817.25;5015321;28;20057;-76
2021/10/18 02:26:42;;;;;;;241.07;216.65;;;;;;;6.32;100.00;101826.13;5014220;28;20221;-76
2021/10/18 02:29:10;;;;;;;270.83;245.32;;;;;;;6.42;100.00;101826.06;5015674;28;20100;-77
2021/10/18 02:31:37;;;;;;;241.48;218.27;;;;;;;6.56;100.00;101819.41;5016848;28;20058;-78
2021/10/18 02:34:04;;;;;;;257.65;231.95;;;;;;;6.53;100.00;101825.81;5016481;28;20112;-76
2021/10/18 02:36:32;;;;;;;240.80;216.95;;;;;;;6.45;100.00;101819.66;5012536;28;20054;-78
2021/10/18 02:38:58;;;;;;;252.68;229.50;;;;;;;6.46;100.00;101827.41;5016010;28;20050;-78
2021/10/18 02:41:25;;;;;;;236.30;214.52;;;;;;;6.49;100.00;101828.94;5010104;28;20120;-76
2021/10/18 02:43:52;;;;;;;256.42;233.25;;;;;;;6.54;100.00;101834.59;5017934;28;20100;-78
2021/10/18 02:46:20;;;;;;;244.00;222.18;;;;;;;6.52;100.00;101831.25;5008384;28;20050;-77
2021/10/18 02:48:47;;;;;;;252.43;230.27;;;;;;;6.54;100.00;101824.84;5017302;28;20111;-77
2021/10/18 02:51:14;;;;;;;235.30;214.77;;;;;;;6.95;100.00;101824.31;5012234;28;20058;-78
2021/10/18 02:53:40;;;;;;;221.30;200.70;;;;;;;6.57;100.00;101823.72;5021730;28;20119;-77
2021/10/18 02:56:07;;;;;;;234.15;213.10;;;;;;;6.54;100.00;101826.69;5013281;28;20449;-76
2021/10/18 02:58:34;;;;;;;206.95;187.43;;;;;;;6.54;100.00;101831.97;5017538;28;20057;-77
2021/10/18 03:01:00;;;;;;;224.50;204.82;;;;;;;6.55;100.00;101823.88;5012062;28;20054;-78
2021/10/18 03:03:28;;;;;;;186.05;169.50;;;;;;;6.61;100.00;101827.72;5005280;28;20128;-78
2021/10/18 03:05:55;;;;;;;184.07;167.60;;;;;;;6.77;100.00;101829.66;5013942;28;20470;-77
2021/10/18 03:08:22;;;;;;;184.32;168.48;;;;;;;6.79;100.00;101827.69;5012510;28;20045;-77
2021/10/18 03:10:49;;;;;;;195.88;179.48;;;;;;;6.86;100.00;101818.16;5013974;28;20137;-78
2021/10/18 03:13:16;;;;;;;196.75;180.32;;;;;;;6.83;100.00;101821.94;5014611;28;20472;-76
2021/10/18 03:15:43;;;;;;;191.13;175.07;;;;;;;6.80;100.00;101824.88;5020086;28;20096;-76
2021/10/18 03:18:10;;;;;;;186.15;169.80;;;;;;;6.75;100.00;101827.19;5014437;28;20192;-76
2021/10/18 03:20:38;;;;;;;210.88;193.43;;;;;;;6.83;100.00;101827.22;5015962;28;20050;-77
2021/10/18 03:23:05;;;;;;;183.65;168.35;;;;;;;6.84;100.00;101820.97;5011223;28;20123;-77
2021/10/18 03:25:34;;;;;;;203.27;186.40;;;;;;;6.73;100.00;101825.66;5013701;28;20053;-77
2021/10/18 03:28:01;;;;;;;219.30;201.40;;;;;;;6.86;100.00;101829.53;5015583;28;20133;-77
2021/10/18 03:30:28;;;;;;;210.55;193.00;;;;;;;6.81;100.00;101828.38;5018302;28;20134;-76
2021/10/18 03:32:55;;;;;;;213.38;195.90;;;;;;;6.80;100.00;101829.34;5013844;28;20112;-76
2021/10/18 03:35:22;;;;;;;205.20;188.57;;;;;;;6.78;100.00;101824.22;5014475;28;20445;-77
2021/10/18 03:37:51;;;;;;;198.52;182.27;;;;;;;6.87;100.00;101827.75;5020198;28;20111;-76
2021/10/18 03:40:17;;;;;;;208.48;191.65;;;;;;;6.89;100.00;101825.78;5014765;28;20457;-77
2021/10/18 03:42:44;;;;;;;201.65;185.25;;;;;;;6.87;100.00;101822.47;5014801;28;20532;-77
2021/10/18 03:45:12;;;;;;;219.60;201.35;;;;;;;6.93;100.00;101824.50;5014010;28;20107;-77
2021/10/18 03:47:39;;;;;;;218.88;202.32;;;;;;;6.94;100.00;101828.78;5019450;28;20038;-77
2021/10/18 03:50:07;;;;;;;197.05;181.05;;;;;;;6.92;100.00;101817.53;5009693;28;20050;-77
2021/10/18 03:52:34;;;;;;;195.82;180.20;;;;;;;6.93;100.00;101824.50;5014163;28;20050;-77
2021/10/18 03:55:03;;;;;;;189.98;174.77;;;;;;;6.98;100.00;101826.66;5008229;28;20562;-77
2021/10/18 03:57:30;;;;;;;198.23;182.50;;;;;;;6.94;100.00;101827.97;5012834;28;20042;-78
2021/10/18 03:59:56;;;;;;;215.50;198.80;;;;;;;6.99;100.00;101829.16;5016422;28;20115;-77
2021/10/18 04:02:23;;;;;;;196.57;180.30;;;;;;;7.05;100.00;101828.53;5013546;28;20105;-76
2021/10/18 04:04:50;;;;;;;193.35;177.93;;;;;;;7.05;100.00;101832.97;5011382;28;20469;-76
2021/10/18 04:07:17;;;;;;;189.50;173.82;;;;;;;7.03;100.00;101832.31;5013331;28;20053;-77
2021/10/18 04:09:45;;;;;;;186.75;170.68;;;;;;;6.93;100.00;101832.41;5016560;28;20052;-78
2021/10/18 04:12:13;;;;;;;190.10;174.30;;;;;;;7.02;100.00;101831.50;5017701;28;20402;-77
2021/10/18 04:14:40;;;;;;;192.38;174.60;;;;;;;7.04;100.00;101834.78;5010564;28;20050;-77
2021/10/18 04:17:07;;;;;;;206.02;189.93;;;;;;;7.17;100.00;101825.59;5009804;28;20062;-76
2021/10/18 04:19:34;;;;;;;187.48;172.18;;;;;;;7.04;100.00;101828.69;5011410;28;20124;-76
2021/10/18 04:22:01;;;;;;;200.95;184.98;;;;;;;7.03;100.00;101833.13;5012171;28;20133;-77
2021/10/18 04:24:27;;;;;;;183.27;168.38;;;;;;;7.06;100.00;101829.38;5014436;28;20062;-77
2021/10/18 04:26:54;;;;;;;184.25;168.82;;;;;;;7.08;100.00;101835.28;5009737;28;20119;-76
2021/10/18 04:29:22;;;;;;;206.68;190.02;;;;;;;7.14;100.00;101833.84;5013740;28;20530;-76
2021/10/18 04:31:49;;;;;;;205.73;188.77;;;;;;;7.18;100.00;101838.69;5013320;28;20453;-76
2021/10/18 04:34:16;;;;;;;200.50;184.02;;;;;;;7.17;100.00;101844.09;5004610;28;20046;-77
2021/10/18 04:36:42;;;;;;;209.30;192.60;;;;;;;7.23;100.00;101849.63;5011008;28;20104;-77
2021/10/18 04:39:09;;;;;;;226.90;208.77;;;;;;;7.23;100.00;101846.97;5008392;28;20046;-77
2021/10/18 04:41:36;;;;;;;211.02;193.57;;;;;;;7.29;100.00;101849.00;5016112;28;20058;-77
2021/10/18 04:44:03;;;;;;;216.60;198.50;;;;;;;7.31;100.00;101843.53;5013584;28;20113;-76
2021/10/18 04:46:31;;;;;;;209.77;192.20;;;;;;;7.23;100.00;101851.41;5007697;28;20120;-77
2021/10/18 04:48:57;;;;;;;208.57;192.18;;;;;;;7.38;100.00;101855.13;5011692;28;20461;-78
2021/10/18 04:51:24;;;;;;;201.25;185.13;;;;;;;7.37;100.00;101850.84;5012484;28;20470;-78
2021/10/18 04:53:51;;;;;;;208.57;192.07;;;;;;;7.44;100.00;101854.50;5018309;28;20049;-76
2021/10/18 04:56:18;;;;;;;188.05;172.43;;;;;;;7.38;100.00;101857.78;5015054;28;20046;-77
2021/10/18 04:58:44;;;;;;;210.35;192.90;;;;;;;7.54;100.00;101859.69;5004809;28;20050;-76
2021/10/18 05:01:11;;;;;;;205.50;188.30;;;;;;;7.54;100.00;101855.22;5014666;28;20557;-77
2021/10/18 05:03:39;;;;;;;177.75;161.23;;;;;;;7.50;100.00;101860.97;5008317;28;20057;-77
2021/10/18 05:06:06;;;;;;;206.57;188.38;;;;;;;7.54;100.00;101863.16;5007213;28;20100;-77
2021/10/18 05:08:33;;;;;;;211.23;191.68;;;;;;;7.67;100.00;101868.00;5012481;28;20566;-77
2021/10/18 05:11:00;;;;;;;220.27;201.32;;;;;;;7.58;100.00;101866.31;5010759;28;20445;-77
2021/10/18 05:13:26;;;;;;;221.68;202.63;;;;;;;7.63;100.00;101871.97;5008533;28;20128;-77
2021/10/18 05:15:53;;;;;;;234.63;214.52;;;;;;;7.67;100.00;101872.47;5012807;28;20054;-76
2021/10/18 05:18:20;;;;;;;243.52;222.45;;;;;;;7.78;100.00;101872.19;5002700;28;20072;-77
2021/10/18 05:20:49;;;;;;;263.63;238.63;;;;;;;7.69;100.00;101870.50;5012025;28;20116;-77
2021/10/18 05:23:16;;;;;;;245.05;223.15;;;;;;;7.71;100.00;101873.81;5009032;28;20058;-80
2021/10/18 05:25:44;;;;;;;224.55;203.75;;;;;;;8.00;100.00;101881.38;5008586;28;20111;-76
2021/10/18 05:28:11;;;;;;;302.10;276.88;;;;;;;11.65;100.00;101881.03;5012044;28;20038;-79
2021/10/18 05:30:38;;;;;;;291.98;268.70;;;;;;;12.19;100.00;101879.84;5009071;28;20114;-79
2021/10/18 05:33:05;;;;;;;164.05;150.40;;;;;;;9.19;100.00;101886.28;5004877;28;20708;-77
2021/10/18 05:35:32;;;;;;;186.02;170.02;;;;;;;8.47;100.00;101891.41;5011795;28;20189;-80
2021/10/18 05:38:00;;;;;;;211.73;193.75;;;;;;;8.42;100.00;101891.09;5011326;28;20112;-77
2021/10/18 05:40:27;;;;;;;240.32;219.48;;;;;;;8.31;100.00;101899.31;5012830;28;20090;-76
2021/10/18 05:42:54;;;;;;;231.25;211.50;;;;;;;8.19;100.00;101899.59;5007684;28;20536;-76
2021/10/18 05:45:21;;;;;;;233.40;214.43;;;;;;;8.08;100.00;101913.16;5009075;28;20109;-77
2021/10/18 05:47:55;;;;;;;215.13;197.05;;;;;;;8.19;100.00;101904.91;5014805;28;20132;-77
2021/10/18 05:50:23;;;;;;;219.85;200.50;;;;;;;8.13;100.00;101907.34;5005943;28;20436;-77
2021/10/18 05:52:50;;;;;;;216.68;197.85;;;;;;;8.11;100.00;101906.69;5005931;28;20084;-77
2021/10/18 05:55:18;;;;;;;224.70;206.38;;;;;;;8.22;100.00;101912.50;5011209;28;20046;-77
2021/10/18 05:57:46;;;;;;;243.52;223.18;;;;;;;8.34;100.00;101917.50;5010272;28;20076;-76
2021/10/18 06:00:13;;;;;;;237.85;216.63;;;;;;;8.30;100.00;101919.66;5006077;28;20466;-77
2021/10/18 06:02:40;;;;;;;245.75;224.90;;;;;;;8.34;100.00;101926.28;5008233;28;20131;-79
2021/10/18 06:05:08;;;;;;;234.70;214.15;;;;;;;8.36;100.00;101926.94;5013679;28;20096;-76
2021/10/18 06:07:34;;;;;;;215.68;196.98;;;;;;;8.22;100.00;101923.09;5004981;28;20471;-77
2021/10/18 06:10:01;;;;;;;222.73;203.77;;;;;;;8.35;100.00;101921.81;5012509;28;20052;-76
2021/10/18 06:12:29;;;;;;;224.82;205.50;;;;;;;8.56;100.00;101919.56;5009703;28;20049;-78
2021/10/18 06:14:56;;;;;;;231.75;212.10;;;;;;;8.69;100.00;101924.41;5009939;28;20038;-76
2021/10/18 06:17:23;;;;;;;227.80;207.52;;;;;;;8.61;100.00;101925.19;5002083;28;20046;-77
2021/10/18 06:19:49;;;;;;;236.82;216.25;;;;;;;8.63;100.00;101922.41;5011786;28;20054;-77
2021/10/18 06:22:16;;;;;;;224.88;206.93;;;;;;;8.70;100.00;101926.88;5016753;28;20061;-78
2021/10/18 06:24:43;;;;;;;232.32;213.57;;;;;;;8.69;100.00;101922.56;5008566;28;20085;-77
2021/10/18 06:27:10;;;;;;;236.63;218.55;;;;;;;8.69;100.00;101922.56;5009572;28;20050;-77
2021/10/18 06:29:38;;;;;;;230.48;212.63;;;;;;;8.80;100.00;101933.84;5011704;28;20049;-77
2021/10/18 06:32:06;;;;;;;233.32;214.45;;;;;;;8.88;100.00;101933.84;5015214;28;20092;-76
2021/10/18 06:34:33;;;;;;;238.40;219.48;;;;;;;8.85;100.00;101934.19;5002529;28;20050;-78
2021/10/18 06:37:00;;;;;;;242.65;223.57;;;;;;;9.03;100.00;101936.66;5008458;28;20046;-76
2021/10/18 06:39:26;;;;;;;228.48;210.10;;;;;;;9.06;100.00;101937.16;5012071;28;20046;-77
2021/10/18 06:41:53;;;;;;;231.52;212.65;;;;;;;9.13;100.00;101937.31;5009913;28;20061;-76
2021/10/18 06:44:20;;;;;;;247.38;227.27;;;;;;;9.28;100.00;101935.66;5015707;28;20057;-76
2021/10/18 06:46:48;;;;;;;248.40;228.60;;;;;;;9.33;100.00;101935.97;5007682;28;20050;-76
2021/10/18 06:49:15;;;;;;;243.18;223.73;;;;;;;9.46;100.00;101932.81;5019763;28;20105;-77
2021/10/18 06:51:45;;;;;;;273.63;250.55;;;;;;;9.48;100.00;101933.47;5004311;28;20383;-76
2021/10/18 06:54:13;;;;;;;284.38;259.38;;;;;;;9.58;100.00;101925.31;5008104;28;20057;-78
2021/10/18 06:56:44;;;;;;;269.95;248.18;;;;;;;9.64;100.00;101930.78;5009864;28;20042;-78
2021/10/18 06:59:11;;;;;;;285.80;262.75;;;;;;;9.79;100.00;101936.19;5008537;28;20487;-76
2021/10/18 07:01:38;;;;;;;278.35;256.30;;;;;;;9.79;100.00;101930.06;5008576;28;20043;-76
2021/10/18 07:04:07;;;;;;;256.65;236.45;;;;;;;9.81;100.00;101934.22;5014350;28;20112;-76
2021/10/18 07:06:34;;;;;;;259.70;239.77;;;;;;;9.82;100.00;101924.41;5007935;28;20123;-75
2021/10/18 07:09:01;;;;;;;256.20;236.82;;;;;;;9.97;100.00;101929.84;5004848;28;20532;-76
2021/10/18 07:11:28;;;;;;;267.33;247.55;;;;;;;10.15;100.00;101934.91;5009872;28;20042;-77
2021/10/18 07:13:55;;;;;;;262.90;243.23;;;;;;;10.13;100.00;101935.06;5017040;28;20446;-76
2021/10/18 07:16:23;;;;;;;266.42;245.82;;;;;;;10.31;100.00;101940.97;5009972;28;20487;-75
2021/10/18 07:18:49;;;;;;;273.05;252.20;;;;;;;10.37;100.00;101934.13;5010540;28;20132;-75
2021/10/18 07:21:18;;;;;;;246.35;226.18;;;;;;;10.39;100.00;101937.47;5011181;28;20053;-77
2021/10/18 07:23:46;;;;;;;242.10;222.27;;;;;;;10.40;100.00;101935.63;5009220;28;20046;-76
2021/10/18 07:26:12;;;;;;;249.77;228.50;;;;;;;10.59;100.00;101937.00;5005683;28;20042;-75
2021/10/18 07:28:39;;;;;;;263.65;241.93;;;;;;;10.59;100.00;101937.84;5011071;28;20042;-77
2021/10/18 07:31:06;;;;;;;247.18;227.23;;;;;;;10.64;100.00;101937.31;5007054;28;20494;-75
2021/10/18 07:33:32;;;;;;;257.13;235.57;;;;;;;10.66;100.00;101946.75;5003200;28;20125;-77
2021/10/18 07:36:07;;;;;;;264.00;243.13;;;;;;;10.69;100.00;101946.41;5012247;28;20046;-77
2021/10/18 07:38:36;;;;;;;268.35;246.88;;;;;;;10.79;100.00;101946.16;5008346;28;20058;-77
2021/10/18 07:41:03;;;;;;;276.77;254.40;;;;;;;10.92;100.00;101949.06;5016819;28;20054;-77
2021/10/18 07:43:30;;;;;;;297.73;273.80;;;;;;;10.98;100.00;101951.03;5014297;28;20057;-77
2021/10/18 07:45:57;;;;;;;280.23;257.80;;;;;;;11.08;100.00;101944.63;5002983;28;20453;-77
2021/10/18 07:48:24;;;;;;;285.63;262.33;;;;;;;10.91;100.00;101946.56;5012018;28;20050;-77
2021/10/18 07:50:50;;;;;;;285.80;262.63;;;;;;;10.96;100.00;101953.03;5010581;28;20099;-78
2021/10/18 07:53:17;;;;;;;287.15;263.27;;;;;;;11.36;100.00;101943.03;5001512;28;20464;-77
2021/10/18 07:55:46;;;;;;;272.98;250.65;;;;;;;11.60;100.00;101946.44;5013777;28;20043;-76
2021/10/18 07:58:12;;;;;;;275.88;253.43;;;;;;;11.59;100.00;101948.28;5015246;28;20050;-78
2021/10/18 08:00:39;;;;;;;287.30;263.60;;;;;;;11.66;100.00;101949.19;5016383;28;20045;-77
2021/10/18 08:03:06;;;;;;;285.92;262.17;;;;;;;11.65;100.00;101952.06;5009581;28;20116;-78
2021/10/18 08:05:32;;;;;;;292.65;268.98;;;;;;;12.04;100.00;101951.81;5011832;28;20080;-78
2021/10/18 08:07:59;;;;;;;286.88;263.30;;;;;;;12.24;100.00;101948.56;5008807;28;20109;-77
2021/10/18 08:10:26;;;;;;;279.45;258.02;;;;;;;12.39;100.00;101949.34;5007880;28;20450;-77
2021/10/18 08:12:57;;;;;;;279.80;258.08;;;;;;;12.38;100.00;101948.53;5010885;28;20054;-78
2021/10/18 08:15:24;;;;;;;291.30;269.38;;;;;;;12.47;100.00;101951.91;5011589;28;20045;-77
2021/10/18 08:17:52;;;;;;;273.65;252.23;;;;;;;12.49;100.00;101952.50;5006839;28;20057;-77
2021/10/18 08:20:19;;;;;;;268.77;248.52;;;;;;;12.55;100.00;101945.63;5011246;28;20119;-77
2021/10/18 08:22:46;;;;;;;244.75;227.30;;;;;;;12.60;100.00;101945.88;5017406;28;20457;-76
2021/10/18 08:25:14;;;;;;;201.10;186.10;;;;;;;12.47;100.00;101940.41;5012578;28;20046;-77
2021/10/18 08:27:41;;;;;;;207.27;192.00;;;;;;;12.79;100.00;101942.56;5012951;28;20042;-78
2021/10/18 08:30:10;;;;;;;210.60;195.07;;;;;;;12.97;100.00;101952.78;5005657;28;20379;-76
2021/10/18 08:32:39;;;;;;;220.50;204.23;;;;;;;12.66;100.00;101941.63;5012293;28;20104;-77
2021/10/18 08:35:09;;;;;;;228.65;212.65;;;;;;;12.69;100.00;101950.06;5014377;28;20056;-79
2021/10/18 08:40:20;;;;;;;179.45;167.55;;;;;;;13.22;100.00;101944.38;5012858;28;20053;-77
2021/10/18 08:42:57;;;;;;;149.23;138.63;;;;;;;13.18;100.00;101941.28;5008948;28;20057;-78
2021/10/18 08:45:25;;;;;;;127.13;118.05;;;;;;;13.29;100.00;101943.44;5010559;28;20050;-79
2021/10/18 08:47:53;;;;;;;124.93;116.57;;;;;;;13.33;100.00;101943.06;5005148;28;20045;-78
2021/10/18 08:50:20;;;;;;;157.95;146.27;;;;;;;12.92;100.00;101946.38;5010618;28;20061;-75
2021/10/18 08:52:48;;;;;;;140.85;130.27;;;;;;;13.06;100.00;101942.81;5018056;28;20058;-76
2021/10/18 08:55:15;;;;;;;119.35;110.47;;;;;;;13.17;100.00;101944.97;5013695;28;20105;-77
2021/10/18 08:57:42;;;;;;;140.88;130.95;;;;;;;13.06;100.00;101940.16;5006833;28;20046;-77
2021/10/18 09:00:37;;;;;;;166.00;153.63;;;;;;;12.68;100.00;101945.75;5007933;28;20495;-76
2021/10/18 09:03:15;;;;;;;185.05;171.80;;;;;;;12.56;100.00;101956.09;5009809;28;20053;-76
2021/10/18 09:05:42;;;;;;;190.75;178.07;;;;;;;12.75;100.00;101951.97;5007077;28;20053;-77
2021/10/18 09:08:09;;;;;;;159.07;147.55;;;;;;;12.54;100.00;101944.78;5006192;28;20470;-76
2021/10/18 09:10:36;;;;;;;184.52;171.18;;;;;;;12.47;100.00;101948.41;5008236;28;20376;-77
2021/10/18 09:13:10;;;;;;;203.90;189.50;;;;;;;12.66;100.00;101953.13;5009740;28;20058;-76
2021/10/18 09:15:38;;;;;;;196.20;181.90;;;;;;;12.52;100.00;101952.13;5003715;28;20049;-78
2021/10/18 09:18:05;;;;;;;181.50;168.77;;;;;;;12.53;100.00;101947.66;5013737;28;20049;-77
2021/10/18 09:20:35;;;;;;;177.07;164.07;;;;;;;12.46;100.00;101946.75;5013312;28;20119;-77
2021/10/18 09:23:18;;;;;;;205.25;190.95;;;;;;;12.56;100.00;101947.28;5008896;28;20054;-77
2021/10/18 09:25:46;;;;;;;199.65;185.75;;;;;;;12.65;100.00;101953.28;5010107;28;20068;-76
2021/10/18 09:28:14;;;;;;;147.35;136.65;;;;;;;13.13;100.00;101943.72;5007387;28;20050;-76
2021/10/18 09:30:45;;;;;;;161.77;149.55;;;;;;;12.82;100.00;101944.84;5012163;28;20108;-75
2021/10/18 09:33:17;;;;;;;147.18;136.57;;;;;;;13.06;100.00;101943.63;5006098;28;20042;-75
2021/10/18 09:35:44;;;;;;;144.05;132.82;;;;;;;12.80;100.00;101935.44;5010371;28;20041;-76
2021/10/18 09:38:12;;;;;;;151.18;140.15;;;;;;;12.68;100.00;101934.25;5007325;28;20494;-77
2021/10/18 09:40:40;;;;;;;185.57;171.82;;;;;;;12.55;100.00;101938.44;5007745;28;20457;-77
2021/10/18 09:43:13;;;;;;;166.73;154.40;;;;;;;12.64;100.00;101939.16;5006317;28;20049;-78
2021/10/18 09:46:08;;;;;;;175.27;162.80;;;;;;;12.88;100.00;101927.28;5007047;28;20046;-77
2021/10/18 10:51:23;;;;;;;201.85;187.38;;;;;;;12.73;100.00;101894.53;5013676;28;20493;-77
2021/10/18 10:53:54;;;;;;;167.75;154.60;;;;;;;12.73;100.00;101887.34;5009551;28;20046;-78
2021/10/18 10:56:28;;;;;;;218.32;202.27;;;;;;;12.80;100.00;101892.78;5010070;28;20046;-77
2021/10/18 10:59:13;;;;;;;156.88;144.77;;;;;;;13.07;100.00;101891.09;5005638;28;20050;-77
2021/10/18 11:01:49;;;;;;;176.27;162.30;;;;;;;12.63;100.00;101891.38;5009899;28;20128;-76
2021/10/18 11:04:46;;;;;;;179.43;165.45;;;;;;;12.62;100.00;101879.91;5008067;28;20474;-78
2021/10/18 11:07:17;;;;;;;229.75;212.60;;;;;;;12.58;100.00;101886.59;5005500;28;20047;-77
2021/10/18 11:09:47;;;;;;;219.52;203.98;;;;;;;12.74;100.00;101883.69;5006496;28;20042;-75
2021/10/18 11:12:29;;;;;;;218.80;204.02;;;;;;;12.90;100.00;101882.59;5014165;28;20054;-77
2021/10/18 11:14:59;;;;;;;181.33;168.73;;;;;;;13.03;100.00;101877.34;5014142;28;20108;-77
2021/10/18 11:17:27;;;;;;;200.60;187.15;;;;;;;12.95;100.00;101877.50;5007812;28;20038;-76
2021/10/18 11:19:56;;;;;;;217.88;202.65;;;;;;;12.76;100.00;101881.63;5014934;28;20430;-76
2021/10/18 11:22:28;;;;;;;217.18;202.25;;;;;;;12.64;100.00;101882.34;5010630;28;20112;-78
2021/10/18 11:24:57;;;;;;;236.75;221.48;;;;;;;12.83;100.00;101882.53;5007900;28;20053;-77
2021/10/18 11:27:26;;;;;;;157.48;146.95;;;;;;;13.07;100.00;101875.09;5011189;28;20108;-76
2021/10/18 11:29:56;;;;;;;160.73;149.25;;;;;;;12.97;100.00;101874.63;5010488;28;20105;-77
2021/10/18 11:32:24;;;;;;;173.82;161.15;;;;;;;12.55;100.00;101876.31;5013201;28;20108;-77
2021/10/18 11:34:51;;;;;;;196.18;181.68;;;;;;;12.74;100.00;101878.38;5014754;28;20124;-76
2021/10/18 11:37:17;;;;;;;180.43;167.90;;;;;;;13.08;100.00;101868.78;5009851;28;20043;-78
2021/10/18 11:39:44;;;;;;;128.63;118.97;;;;;;;13.17;100.00;101869.47;5009350;28;20096;-78
2021/10/18 11:42:14;;;;;;;153.55;142.32;;;;;;;13.10;100.00;101863.22;5008079;28;20058;-76
2021/10/18 11:44:48;;;;;;;136.85;127.60;;;;;;;13.23;100.00;101858.00;5011173;28;20104;-75
2021/10/18 11:47:30;;;;;;;131.20;121.85;;;;;;;13.15;100.00;101860.81;5009161;28;20134;-77
2021/10/18 11:50:08;;;;;;;154.18;143.32;;;;;;;13.06;100.00;101854.81;5014271;28;20061;-75
2021/10/18 11:52:35;;;;;;;130.38;121.18;;;;;;;13.20;100.00;101858.41;5006175;28;20054;-75
2021/10/18 11:55:02;;;;;;;154.27;143.25;;;;;;;13.02;100.00;101858.88;5010547;28;20049;-77
2021/10/18 11:57:30;;;;;;;160.13;148.98;;;;;;;13.11;100.00;101854.22;5010449;28;20046;-75
2021/10/18 11:59:57;;;;;;;159.30;148.02;;;;;;;13.02;100.00;101858.88;5014505;28;20054;-76
2021/10/18 12:02:25;;;;;;;148.77;138.45;;;;;;;13.07;100.00;101849.28;5012799;28;20050;-77